Nearby METAR Reports

 

KVCB - Vacaville/Nut Tree Arpt, California, USA
Distance from station: NE 2mi, 3km
Updated: Thu, 25-Jul-2024 10:53am PDT
Clear
Clear
 Wind from SSW
Wind: SSW 12 mph , 19 km/h, Gust: 21 mph , 33 km/h
Temperature: 88°F , 31°C
Dew Point: 52°F , 11°C
Humidity: 29%
Barometer: 30.02 inHg , 1016.6 hPa
Clouds: Clear
Visibility: 10 miles , 16 km
2024/07/25 17:53 KVCB 251753Z AUTO 21010G18KT 10SM CLR 31/11 A3002 RMK AO2 SLP165 T03060111 10306 20200 51005
KSUU - Fairfield/Travis AFB, California, USA
Distance from station: SSE 8mi, 13km
Updated: Thu, 25-Jul-2024 9:55am PDT
NOT Current
Clear
Clear
 Wind from SW
Wind: SW 20 mph , 31 km/h
Temperature: 77°F , 25°C
Dew Point: 54°F , 12°C
Humidity: 44%
Barometer: 30.02 inHg , 1016.6 hPa
Clouds: Clear
Visibility: 10 miles , 16 km
2024/07/25 16:55 KSUU 251655Z AUTO 23017KT 10SM CLR 25/12 A3002 RMK AO2 SLP172 T02520117 $
 
KEDU - Davis/University Arpt, California, USA
Distance from station: NE 16mi, 26km
Updated: Thu, 25-Jul-2024 11:15am PDT
Clear
Clear
 
Temperature: 86°F , 30°C
Dew Point: 50°F , 10°C
Humidity: 29%
Barometer: 30.02 inHg , 1016.6 hPa
Clouds: Clear
Visibility: 10 miles , 16 km
2024/07/25 18:15 KEDU 251815Z AUTO 10SM CLR 30/10 A3002 RMK AO1
KDWA - Davis/Yolo Cnty, California, USA
Distance from station: NNE 17mi, 27km
Updated: Thu, 25-Jul-2024 11:15am PDT
Clear
Clear
 Wind from S
Wind: S 8 mph , 13 km/h
Temperature: 90°F , 32°C
Dew Point: 52°F , 11°C
Humidity: 27%
Barometer: 30.02 inHg , 1016.6 hPa
Clouds: Clear
Visibility: 10 miles , 16 km
2024/07/25 18:15 KDWA 251815Z AUTO 17007KT 10SM CLR 32/11 A3002 RMK AO2
 
KAPC - Napa Cnty Arpt, California, USA
Distance from station: WSW 19mi, 30km
Updated: Thu, 25-Jul-2024 10:54am PDT
Clear
Clear
 Wind from S
Wind: S 10 mph , 17 km/h
Temperature: 73°F , 23°C
Dew Point: 59°F , 15°C
Humidity: 61%
Barometer: 30.07 inHg , 1018.3 hPa
Clouds: Clear
Visibility: 10 miles , 16 km
2024/07/25 17:54 KAPC 251754Z 19009KT 10SM CLR 23/15 A3007 RMK AO2 SLP175 T02330150 10233 20144 51003
KCCR - Concord/Buchanan Fld, California, USA
Distance from station: S 25mi, 41km
Updated: Thu, 25-Jul-2024 10:53am PDT
Clear
Clear
 Wind from NW
Wind: NW 10 mph , 17 km/h
Temperature: 81°F , 27°C
Heat Index: 81°F , 27°C
Dew Point: 57°F , 14°C
Humidity: 45%
Barometer: 30.05 inHg , 1017.6 hPa
Clouds: Clear
Visibility: 10 miles , 16 km
2024/07/25 17:53 KCCR 251753Z 32009KT 10SM CLR 27/14 A3005 RMK AO2 SLP163 T02670139 10267 20189 51004
 
KSAC - Sacramento Exec, California, USA
Distance from station: ENE 29mi, 46km
Updated: Thu, 25-Jul-2024 10:53am PDT
Clear
Clear
 Wind from SSW
Wind: SSW 8 mph , 13 km/h
Temperature: 84°F , 29°C
Dew Point: 52°F , 11°C
Humidity: 33%
Barometer: 30.03 inHg , 1016.9 hPa
Clouds: Clear
Visibility: 10 miles , 16 km
2024/07/25 17:53 KSAC 251753Z 21007KT 10SM CLR 29/11 A3003 RMK AO2 SLP167 T02940106 10294 20206 51006
KSMF - Sacramento Intl, California, USA
Distance from station: NE 32mi, 51km
Updated: Thu, 25-Jul-2024 10:53am PDT
Clear
Clear
 Wind from SSE
Wind: SSE 14 mph , 22 km/h
Temperature: 88°F , 31°C
Dew Point: 50°F , 10°C
Humidity: 27%
Barometer: 30.01 inHg , 1016.3 hPa
Clouds: Clear
Visibility: 10 miles , 16 km
2024/07/25 17:53 KSMF 251753Z 15012KT 10SM CLR 31/10 A3001 RMK AO2 SLP162 T03110100 10311 20211 51007
 
KDVO - Novato/Gnoss Fld, California, USA
Distance from station: WSW 34mi, 55km
Updated: Thu, 25-Jul-2024 11:15am PDT
Clear
Clear
 Wind from varies
Wind: varies 3 mph , 6 km/h
Temperature: 79°F , 26°C
Dew Point: 59°F , 15°C
Humidity: 51%
Barometer: 30.06 inHg , 1017.9 hPa
Clouds: Clear
Visibility: 10 miles , 16 km
2024/07/25 18:15 KDVO 251815Z AUTO VRB03KT 10SM CLR 26/15 A3006 RMK AO2
KO69 - Petaluma Muni, California, USA
Distance from station: WSW 34mi, 55km
Updated: Thu, 25-Jul-2024 11:15am PDT
Clear
Clear
 Wind from varies
Wind: varies 6 mph , 9 km/h
Temperature: 73°F , 23°C
Dew Point: 54°F , 12°C
Humidity: 50%
Barometer: 30.08 inHg , 1018.6 hPa
Clouds: Clear
Visibility: 10 miles , 16 km
2024/07/25 18:15 KO69 251815Z AUTO VRB05KT 10SM CLR 23/12 A3008 RMK A01
 
KMCC - McClellan AFB, California, USA
Distance from station: NE 39mi, 62km
Updated: Thu, 25-Jul-2024 11:15am PDT
Clear
Clear
 Wind from SSE
Wind: SSE 10 mph , 17 km/h
Temperature: 90°F , 32°C
Dew Point: 45°F , 7°C
Humidity: 21%
Barometer: 30.02 inHg , 1016.6 hPa
Clouds: Clear
Visibility: 10 miles , 16 km
2024/07/25 18:15 KMCC 251815Z AUTO 16009KT 10SM CLR 32/07 A3002 RMK AO2 PWINO
KMHR - Sacramento/Mather Fld, California, USA
Distance from station: ENE 41mi, 65km
Updated: Thu, 25-Jul-2024 11:15am PDT
Clear
Clear
 Wind from SSW
Wind: SSW 10 mph , 17 km/h
Temperature: 90°F , 32°C
Dew Point: 39°F , 4°C
Humidity: 17%
Barometer: 30.02 inHg , 1016.6 hPa
Clouds: Clear
Visibility: 10 miles , 16 km
2024/07/25 18:15 KMHR 251815Z AUTO 21009KT 10SM CLR 32/04 A3002 RMK A01
 
KC83 - Byron Arpt, California, USA
Distance from station: SSE 42mi, 67km
Updated: Thu, 25-Jul-2024 11:15am PDT
Clear
Clear
 Wind from E
Wind: E 12 mph , 19 km/h
Temperature: 86°F , 30°C
Heat Index: 86°F , 30°C
Dew Point: 61°F , 16°C
Humidity: 43%
Barometer: 30.03 inHg , 1016.9 hPa
Clouds: Clear
Visibility: 9 miles , 14 km
2024/07/25 18:15 KC83 251815Z AUTO 09010KT 9SM CLR 30/16 A3003 RMK AO2
KNGZ - Alameda/Alameda NAS, California, USA
Distance from station: SSW 44mi, 70km
Updated: Thu, 25-Jul-2024 11:24am PDT
unable to load KNGZ data RC=404 Not Found
unable to load KNGZ data RC=404 Not Found
 
 
KOAK - Oakland Intl, California, USA
Distance from station: SSW 46mi, 74km
Updated: Thu, 25-Jul-2024 10:53am PDT
Clear
Clear
 Wind from WNW
Wind: WNW 13 mph , 20 km/h
Temperature: 72°F , 22°C
Dew Point: 61°F , 16°C
Humidity: 69%
Barometer: 30.08 inHg , 1018.6 hPa
Clouds: Clear
Visibility: 10 miles , 16 km
2024/07/25 17:53 KOAK 251753Z 30011KT 10SM CLR 22/16 A3008 RMK AO2 SLP186 T02170156 10217 20167 51004
KSTS - Santa Rosa/Schulz Arpt, California, USA
Distance from station: WNW 46mi, 74km
Updated: Thu, 25-Jul-2024 10:53am PDT
Haze, Clear
Haze, Clear
 Wind from varies
Wind: varies 5 mph , 7 km/h
Temperature: 73°F , 23°C
Dew Point: 57°F , 14°C
Humidity: 57%
Barometer: 30.08 inHg , 1018.6 hPa
Summary: Haze
Clouds: Clear
Visibility: 10 miles , 16 km
2024/07/25 17:53 KSTS 251753Z VRB04KT 10SM HZ CLR 23/14 A3008 RMK AO2 SLP178 T02330139 10233 20111 50000
 
KLVK - Livermore Muni, California, USA
Distance from station: SSE 47mi, 75km
Updated: Thu, 25-Jul-2024 10:53am PDT
Clear
Clear
 Wind from SW
Wind: SW 8 mph , 13 km/h
Temperature: 88°F , 31°C
Dew Point: 50°F , 10°C
Humidity: 27%
Barometer: 30.04 inHg , 1017.3 hPa
Clouds: Clear
Visibility: 10 miles , 16 km
2024/07/25 17:53 KLVK 251753Z 23007KT 10SM CLR 31/10 A3004 RMK AO2 SLP168 T03110100 10311 20194 50000
KHWD - Hayward Exec, California, USA
Distance from station: S 49mi, 78km
Updated: Thu, 25-Jul-2024 10:54am PDT
Clear
Clear
 Wind from W
Wind: W 8 mph , 13 km/h
Temperature: 75°F , 24°C
Dew Point: 61°F , 16°C
Humidity: 61%
Barometer: 30.07 inHg , 1018.3 hPa
Clouds: Clear
Visibility: 10 miles , 16 km
2024/07/25 17:54 KHWD 251754Z 27007KT 10SM CLR 24/16 A3007 RMK AO2 SLP191 T02440156 10250 20172 51003